createdAt,value
2018-09-18T00:00:29.930Z,5.62
2018-09-18T00:01:03.313Z,5.87
2018-09-18T00:01:36.455Z,5.50
2018-09-18T00:02:09.622Z,5.55
2018-09-18T00:02:42.748Z,5.80
2018-09-18T00:03:16.109Z,6.50
2018-09-18T00:03:49.296Z,5.97
2018-09-18T00:04:22.480Z,6.20
2018-09-18T00:04:55.657Z,5.83
2018-09-18T00:05:28.814Z,6.00
2018-09-18T00:06:02.026Z,6.20
2018-09-18T00:06:35.254Z,6.53
2018-09-18T00:07:08.427Z,5.80
2018-09-18T00:07:41.552Z,5.78
2018-09-18T00:08:14.675Z,5.80
2018-09-18T00:08:48.041Z,5.75
2018-09-18T00:09:21.218Z,6.15
2018-09-18T00:09:54.403Z,5.30
2018-09-18T00:10:27.536Z,5.80
2018-09-18T00:11:00.671Z,5.75
2018-09-18T00:11:33.919Z,5.97
2018-09-18T00:12:07.294Z,6.42
2018-09-18T00:12:40.712Z,5.45
2018-09-18T00:13:13.932Z,6.33
2018-09-18T00:13:47.063Z,6.10
2018-09-18T00:14:20.247Z,5.87
2018-09-18T00:14:53.406Z,6.45
2018-09-18T00:15:26.594Z,5.80
2018-09-18T00:15:59.843Z,6.25
2018-09-18T00:16:33.035Z,6.17
2018-09-18T00:17:06.191Z,6.50
2018-09-18T00:17:39.385Z,6.03
2018-09-18T00:18:12.759Z,5.92
2018-09-18T00:18:46.067Z,5.20
2018-09-18T00:19:19.440Z,5.80
2018-09-18T00:19:52.625Z,6.60
2018-09-18T00:20:25.862Z,5.80
2018-09-18T00:20:58.992Z,6.03
2018-09-18T00:21:32.216Z,5.65
2018-09-18T00:22:05.364Z,6.10
2018-09-18T00:22:38.531Z,5.33
2018-09-18T00:23:11.744Z,5.78
2018-09-18T00:23:44.933Z,5.62
2018-09-18T00:24:18.120Z,6.00
2018-09-18T00:24:51.934Z,6.40
2018-09-18T00:25:25.143Z,5.90
2018-09-18T00:25:58.378Z,6.85
2018-09-18T00:26:31.526Z,5.83
2018-09-18T00:27:04.683Z,6.58
2018-09-18T00:27:37.865Z,6.25
2018-09-18T00:28:11.194Z,5.80
2018-09-18T00:28:44.401Z,6.20
2018-09-18T00:29:17.542Z,5.83
2018-09-18T00:29:50.751Z,5.95
2018-09-18T00:30:23.886Z,6.10
2018-09-18T00:30:57.012Z,6.20
2018-09-18T00:31:30.188Z,6.50
2018-09-18T00:32:03.346Z,6.33
2018-09-18T00:32:36.495Z,6.83
2018-09-18T00:33:09.658Z,6.50
2018-09-18T00:33:42.825Z,6.97
2018-09-18T00:34:16.000Z,6.65
2018-09-18T00:34:49.187Z,5.90
2018-09-18T00:35:22.377Z,5.97
2018-09-18T00:35:55.563Z,5.40
2018-09-18T00:36:28.711Z,6.55
2018-09-18T00:37:01.888Z,7.35
2018-09-18T00:37:35.068Z,6.70
2018-09-18T00:38:08.228Z,5.60
2018-09-18T00:38:41.488Z,5.95
2018-09-18T00:39:14.643Z,5.95
2018-09-18T00:39:47.858Z,6.25
2018-09-18T00:40:21.021Z,5.28
2018-09-18T00:40:54.178Z,5.72
2018-09-18T00:41:27.294Z,6.97
2018-09-18T00:42:00.492Z,5.28
2018-09-18T00:42:33.667Z,6.62
2018-09-18T00:43:06.912Z,5.47
2018-09-18T00:43:40.070Z,5.72
2018-09-18T00:44:13.380Z,6.00
2018-09-18T00:44:46.530Z,5.95
2018-09-18T00:45:19.717Z,6.20
2018-09-18T00:45:53.010Z,6.83
2018-09-18T00:46:26.461Z,5.45
2018-09-18T00:46:59.657Z,5.90
2018-09-18T00:47:33.451Z,6.00
2018-09-18T00:48:07.289Z,6.15
2018-09-18T00:48:42.279Z,5.92
2018-09-18T00:49:15.437Z,5.75
2018-09-18T00:49:48.604Z,5.75
2018-09-18T00:50:21.873Z,5.80
2018-09-18T00:50:55.079Z,5.28
2018-09-18T00:51:28.407Z,6.40
2018-09-18T00:52:01.582Z,6.10
2018-09-18T00:52:34.819Z,5.72
2018-09-18T00:53:08.108Z,5.97
2018-09-18T00:53:41.404Z,5.92
2018-09-18T00:54:14.605Z,6.67
2018-09-18T00:54:47.812Z,6.40
2018-09-18T00:55:20.931Z,5.95
2018-09-18T00:55:54.266Z,6.05
2018-09-18T00:56:27.937Z,5.62
2018-09-18T00:57:01.151Z,6.35
2018-09-18T00:57:34.302Z,5.67
2018-09-18T00:58:07.477Z,5.70
2018-09-18T00:58:40.636Z,6.58
2018-09-18T00:59:13.799Z,5.50
2018-09-18T00:59:46.961Z,5.85
2018-09-18T01:00:20.306Z,6.10
2018-09-18T01:00:54.132Z,6.08
2018-09-18T01:01:28.010Z,6.53
2018-09-18T01:02:01.165Z,6.72
2018-09-18T01:02:34.380Z,6.72
2018-09-18T01:03:07.555Z,5.37
2018-09-18T01:03:40.825Z,6.30
2018-09-18T01:04:14.098Z,6.10
2018-09-18T01:04:47.241Z,5.67
2018-09-18T01:05:20.388Z,5.58
2018-09-18T01:05:53.535Z,6.30
2018-09-18T01:06:26.736Z,5.65
2018-09-18T01:06:59.916Z,6.20
2018-09-18T01:07:33.693Z,5.45
2018-09-18T01:08:06.871Z,6.47
2018-09-18T01:08:40.161Z,5.85
2018-09-18T01:09:13.381Z,5.83
2018-09-18T01:09:46.545Z,7.10
2018-09-18T01:10:19.708Z,5.70
2018-09-18T01:10:52.877Z,6.33
2018-09-18T01:11:26.034Z,6.25
2018-09-18T01:11:59.222Z,5.97
2018-09-18T01:12:32.376Z,6.08
2018-09-18T01:13:05.662Z,6.75
2018-09-18T01:13:38.814Z,6.00
2018-09-18T01:14:11.994Z,5.78
2018-09-18T01:14:45.145Z,6.15
2018-09-18T01:15:18.274Z,7.15
2018-09-18T01:15:51.401Z,5.60
2018-09-18T01:16:24.578Z,5.62
2018-09-18T01:16:57.747Z,6.17
2018-09-18T01:17:30.923Z,5.70
2018-09-18T01:18:04.116Z,6.47
2018-09-18T01:18:40.206Z,5.97
2018-09-18T01:19:13.382Z,6.53
2018-09-18T01:19:46.544Z,6.72
2018-09-18T01:20:19.679Z,6.60
2018-09-18T01:20:52.811Z,6.08
2018-09-18T01:21:25.980Z,5.47
2018-09-18T01:21:59.172Z,6.45
2018-09-18T01:22:32.323Z,6.15
2018-09-18T01:23:05.513Z,6.35
2018-09-18T01:23:38.873Z,6.90
2018-09-18T01:24:12.036Z,6.45
2018-09-18T01:24:45.185Z,6.75
2018-09-18T01:25:18.368Z,5.30
2018-09-18T01:25:51.519Z,6.10
2018-09-18T01:26:24.673Z,6.20
2018-09-18T01:26:57.815Z,6.50
2018-09-18T01:27:31.445Z,6.10
2018-09-18T01:28:04.794Z,6.45
2018-09-18T01:28:37.966Z,6.60
2018-09-18T01:29:11.140Z,6.67
2018-09-18T01:29:44.358Z,5.78
2018-09-18T01:30:17.492Z,7.15
2018-09-18T01:30:50.831Z,6.28
2018-09-18T01:31:23.989Z,6.17
2018-09-18T01:31:57.144Z,6.30
2018-09-18T01:32:30.321Z,6.45
2018-09-18T01:33:03.542Z,6.60
2018-09-18T01:33:36.686Z,6.80
2018-09-18T01:34:09.792Z,6.80
2018-09-18T01:34:43.108Z,6.45
2018-09-18T01:35:16.857Z,5.85
2018-09-18T01:35:50.282Z,6.58
2018-09-18T01:36:23.439Z,6.00
2018-09-18T01:36:56.618Z,6.65
2018-09-18T01:37:29.781Z,6.72
2018-09-18T01:38:02.955Z,5.78
2018-09-18T01:38:36.136Z,5.85
2018-09-18T01:39:09.886Z,7.33
2018-09-18T01:39:43.053Z,5.75
2018-09-18T01:40:16.601Z,6.17
2018-09-18T01:40:49.975Z,5.97
2018-09-18T01:41:23.135Z,6.42
2018-09-18T01:41:56.367Z,6.03
2018-09-18T01:42:29.660Z,7.25
2018-09-18T01:43:03.451Z,6.42
2018-09-18T01:43:36.703Z,5.92
2018-09-18T01:44:09.956Z,6.45
2018-09-18T01:44:43.096Z,6.92
2018-09-18T01:45:16.289Z,6.45
2018-09-18T01:45:49.758Z,6.45
2018-09-18T01:46:22.922Z,6.80
2018-09-18T01:46:56.058Z,6.05
2018-09-18T01:47:29.239Z,6.60
2018-09-18T01:48:02.372Z,8.28
2018-09-18T01:48:35.505Z,7.10
2018-09-18T01:49:08.664Z,6.28
2018-09-18T01:49:41.854Z,6.35
2018-09-18T01:50:15.007Z,6.42
2018-09-18T01:50:48.310Z,5.72
2018-09-18T01:51:21.504Z,6.47
2018-09-18T01:51:54.669Z,6.08
2018-09-18T01:52:27.894Z,6.00
2018-09-18T01:53:01.018Z,6.03
2018-09-18T01:53:34.178Z,6.15
2018-09-18T01:54:07.473Z,6.78
2018-09-18T01:54:40.658Z,6.30
2018-09-18T01:55:13.837Z,6.60
2018-09-18T01:55:46.965Z,6.90
2018-09-18T01:56:20.139Z,6.47
2018-09-18T01:56:53.295Z,6.40
2018-09-18T01:57:26.634Z,6.30
2018-09-18T01:57:59.788Z,6.58
2018-09-18T01:58:32.948Z,6.17
2018-09-18T01:59:06.305Z,6.55
2018-09-18T01:59:39.474Z,7.37
2018-09-18T02:00:12.667Z,6.55
2018-09-18T02:00:45.871Z,6.87
2018-09-18T02:01:19.048Z,6.72
2018-09-18T02:01:52.233Z,7.62
2018-09-18T02:02:25.426Z,6.42
2018-09-18T02:02:58.554Z,6.90
2018-09-18T02:03:31.739Z,6.40
2018-09-18T02:04:05.055Z,6.00
2018-09-18T02:04:38.198Z,6.80
2018-09-18T02:05:11.378Z,6.65
2018-09-18T02:05:44.543Z,7.20
2018-09-18T02:06:17.729Z,7.00
2018-09-18T02:06:50.901Z,6.83
2018-09-18T02:07:24.093Z,7.00
2018-09-18T02:07:57.871Z,6.22
2018-09-18T02:08:31.026Z,6.70
2018-09-18T02:09:04.920Z,7.22
2018-09-18T02:09:38.088Z,6.65
2018-09-18T02:10:11.350Z,6.45
2018-09-18T02:10:44.481Z,6.40
2018-09-18T02:11:17.627Z,6.28
2018-09-18T02:11:50.859Z,6.28
2018-09-18T02:12:24.019Z,6.55
2018-09-18T02:12:57.231Z,6.33
2018-09-18T02:13:30.394Z,6.47
2018-09-18T02:14:03.588Z,6.87
2018-09-18T02:14:36.758Z,7.10
2018-09-18T02:15:09.994Z,6.70
2018-09-18T02:15:43.530Z,6.58
2018-09-18T02:16:16.642Z,6.53
2018-09-18T02:16:49.947Z,7.15
2018-09-18T02:17:23.134Z,6.70
2018-09-18T02:17:56.335Z,6.87
2018-09-18T02:18:29.471Z,7.05
2018-09-18T02:19:02.684Z,7.17
2018-09-18T02:19:35.909Z,6.12
2018-09-18T02:20:09.126Z,8.40
2018-09-18T02:20:42.295Z,6.30
2018-09-18T02:21:15.501Z,7.28
2018-09-18T02:21:48.645Z,6.50
2018-09-18T02:22:21.811Z,6.78
2018-09-18T02:22:55.042Z,6.42
2018-09-18T02:23:28.216Z,6.53
2018-09-18T02:24:01.355Z,7.22
2018-09-18T02:24:35.181Z,5.92
2018-09-18T02:25:08.410Z,6.83
2018-09-18T02:25:41.655Z,6.95
2018-09-18T02:26:15.286Z,7.33
2018-09-18T02:26:48.488Z,7.00
2018-09-18T02:27:21.654Z,6.72
2018-09-18T02:27:54.843Z,7.42
2018-09-18T02:28:28.028Z,7.60
2018-09-18T02:29:01.192Z,6.87
2018-09-18T02:29:34.375Z,6.47
2018-09-18T02:30:07.564Z,7.10
2018-09-18T02:30:40.761Z,6.75
2018-09-18T02:31:14.097Z,6.78
2018-09-18T02:31:47.287Z,6.85
2018-09-18T02:32:20.925Z,6.95
2018-09-18T02:32:54.083Z,6.33
2018-09-18T02:33:27.259Z,6.60
2018-09-18T02:34:00.504Z,6.22
2018-09-18T02:34:33.859Z,6.53
2018-09-18T02:35:07.138Z,6.70
2018-09-18T02:35:40.415Z,6.60
2018-09-18T02:36:13.644Z,6.50
2018-09-18T02:36:46.897Z,6.50
2018-09-18T02:37:20.058Z,6.83
2018-09-18T02:37:53.218Z,6.83
2018-09-18T02:38:26.584Z,7.45
2018-09-18T02:38:59.769Z,6.58
2018-09-18T02:39:33.537Z,6.37
2018-09-18T02:40:07.066Z,6.55
2018-09-18T02:40:40.235Z,6.85
2018-09-18T02:41:13.637Z,6.95
2018-09-18T02:41:46.996Z,6.40
2018-09-18T02:42:20.918Z,6.45
2018-09-18T02:42:54.062Z,7.37
2018-09-18T02:43:27.227Z,7.75
2018-09-18T02:44:00.389Z,6.60
2018-09-18T02:44:33.517Z,6.80
2018-09-18T02:45:06.846Z,6.55
2018-09-18T02:45:40.266Z,6.62
2018-09-18T02:46:13.805Z,6.62
2018-09-18T02:46:46.974Z,7.55
2018-09-18T02:47:20.139Z,6.80
2018-09-18T02:47:53.322Z,7.05
2018-09-18T02:48:26.529Z,7.72
2018-09-18T02:48:59.754Z,7.72
2018-09-18T02:49:32.901Z,6.92
2018-09-18T02:50:06.069Z,6.58
2018-09-18T02:50:39.394Z,7.10
2018-09-18T02:51:12.960Z,7.30
2018-09-18T02:51:46.184Z,7.03
2018-09-18T02:52:19.991Z,7.42
2018-09-18T02:52:53.175Z,7.28
2018-09-18T02:53:26.342Z,6.60
2018-09-18T02:53:59.601Z,7.33
2018-09-18T02:54:32.778Z,6.42
2018-09-18T02:55:06.024Z,7.42
2018-09-18T02:55:39.676Z,7.75
2018-09-18T02:56:12.848Z,6.55
2018-09-18T02:56:46.027Z,7.62
2018-09-18T02:57:19.191Z,7.30
2018-09-18T02:57:52.352Z,7.00
2018-09-18T02:58:25.567Z,6.70
2018-09-18T02:58:58.713Z,6.70
2018-09-18T02:59:31.910Z,6.75
2018-09-18T03:00:05.607Z,7.03
2018-09-18T03:00:38.754Z,6.72
2018-09-18T03:01:11.933Z,6.65
2018-09-18T03:01:45.092Z,6.70
2018-09-18T03:02:18.227Z,7.83
2018-09-18T03:02:51.362Z,7.22
2018-09-18T03:03:24.492Z,7.40
2018-09-18T03:03:57.637Z,7.53
2018-09-18T03:04:30.857Z,7.75
2018-09-18T03:05:04.009Z,7.60
2018-09-18T03:05:37.409Z,7.90
2018-09-18T03:06:10.571Z,6.53
2018-09-18T03:06:43.728Z,7.65
2018-09-18T03:07:16.908Z,7.50
2018-09-18T03:07:50.079Z,7.35
2018-09-18T03:08:23.293Z,7.45
2018-09-18T03:08:56.444Z,6.97
2018-09-18T03:09:29.634Z,8.15
2018-09-18T03:10:03.091Z,7.60
2018-09-18T03:10:36.432Z,6.85
2018-09-18T03:11:09.811Z,7.90
2018-09-18T03:11:42.926Z,7.72
2018-09-18T03:12:16.052Z,7.40
2018-09-18T03:12:49.211Z,7.20
2018-09-18T03:13:22.326Z,7.00
2018-09-18T03:13:55.471Z,7.05
2018-09-18T03:14:28.641Z,8.30
2018-09-18T03:15:01.855Z,7.45
2018-09-18T03:15:35.002Z,6.87
2018-09-18T03:16:08.194Z,8.20
2018-09-18T03:16:41.490Z,7.17
2018-09-18T03:17:14.674Z,7.17
2018-09-18T03:17:48.287Z,7.95
2018-09-18T03:18:21.468Z,7.35
2018-09-18T03:18:54.624Z,7.17
2018-09-18T03:19:27.780Z,16.65
2018-09-18T03:20:00.935Z,9.30
2018-09-18T03:20:34.120Z,8.53
2018-09-18T03:21:07.725Z,7.58
2018-09-18T03:21:40.907Z,7.90
2018-09-18T03:22:14.221Z,8.25
2018-09-18T03:22:47.407Z,9.05
2018-09-18T03:23:20.629Z,7.70
2018-09-18T03:23:53.829Z,8.03
2018-09-18T03:24:27.475Z,7.80
2018-09-18T03:25:00.852Z,7.12
2018-09-18T03:25:34.030Z,7.90
2018-09-18T03:26:07.231Z,7.67
2018-09-18T03:26:40.400Z,7.62
2018-09-18T03:27:13.669Z,7.90
2018-09-18T03:27:46.852Z,11.40
2018-09-18T03:28:20.022Z,8.43
2018-09-18T03:28:53.179Z,7.75
2018-09-18T03:29:26.406Z,7.33
2018-09-18T03:29:59.576Z,7.33
2018-09-18T03:30:32.754Z,8.10
2018-09-18T03:31:06.066Z,8.13
2018-09-18T03:31:39.267Z,8.00
2018-09-18T03:32:12.430Z,7.35
2018-09-18T03:32:45.643Z,8.18
2018-09-18T03:33:18.786Z,8.65
2018-09-18T03:33:52.075Z,8.10
2018-09-18T03:34:25.342Z,7.80
2018-09-18T03:34:58.479Z,8.38
2018-09-18T03:35:31.718Z,7.65
2018-09-18T03:36:05.390Z,8.03
2018-09-18T03:36:38.710Z,8.03
2018-09-18T03:37:11.866Z,8.55
2018-09-18T03:37:45.056Z,8.25
2018-09-18T03:38:18.290Z,7.80
2018-09-18T03:38:51.594Z,8.58
2018-09-18T03:39:24.739Z,7.42
2018-09-18T03:39:57.960Z,8.48
2018-09-18T03:40:31.127Z,8.10
2018-09-18T03:41:04.411Z,8.30
2018-09-18T03:41:37.839Z,7.42
2018-09-18T03:42:11.613Z,8.30
2018-09-18T03:42:44.805Z,8.00
2018-09-18T03:43:18.074Z,8.20
2018-09-18T03:43:51.258Z,7.72
2018-09-18T03:44:25.050Z,7.95
2018-09-18T03:44:58.586Z,8.65
2018-09-18T03:46:11.482Z,7.72
2018-09-18T03:46:45.239Z,8.65
2018-09-18T03:47:21.257Z,8.13
2018-09-18T03:47:54.490Z,8.25
2018-09-18T03:48:27.642Z,8.38
2018-09-18T03:49:00.834Z,8.63
2018-09-18T03:49:33.962Z,9.20
2018-09-18T03:50:07.680Z,8.90
2018-09-18T03:50:40.888Z,8.53
2018-09-18T03:51:14.053Z,8.68
2018-09-18T03:51:47.225Z,8.53
2018-09-18T03:52:20.394Z,7.85
2018-09-18T03:52:53.623Z,8.00
2018-09-18T03:53:27.079Z,7.95
2018-09-18T03:54:00.306Z,9.38
2018-09-18T03:54:33.550Z,8.30
2018-09-18T03:55:06.726Z,8.05
2018-09-18T03:55:39.906Z,8.75
2018-09-18T03:56:13.395Z,8.15
2018-09-18T03:56:46.651Z,9.05
2018-09-18T03:57:20.059Z,8.53
2018-09-18T03:57:53.328Z,8.20
2018-09-18T03:58:26.834Z,8.98
2018-09-18T03:58:59.999Z,8.60
2018-09-18T03:59:33.174Z,10.08
2018-09-18T04:00:06.362Z,8.18
2018-09-18T04:00:39.538Z,7.80
2018-09-18T04:01:12.683Z,8.35
2018-09-18T04:01:45.826Z,9.80
2018-09-18T04:02:19.062Z,8.10
2018-09-18T04:02:52.314Z,8.45
2018-09-18T04:03:25.515Z,8.98
2018-09-18T04:03:58.784Z,7.92
2018-09-18T04:04:32.020Z,8.00
2018-09-18T04:05:05.261Z,8.53
2018-09-18T04:05:38.485Z,8.70
2018-09-18T04:06:11.670Z,8.43
2018-09-18T04:06:44.920Z,8.10
2018-09-18T04:07:18.175Z,8.60
2018-09-18T04:07:51.379Z,8.95
2018-09-18T04:08:24.671Z,8.53
2018-09-18T04:08:57.891Z,8.90
2018-09-18T04:09:31.049Z,8.58
2018-09-18T04:10:04.277Z,8.35
2018-09-18T04:10:37.440Z,8.70
2018-09-18T04:11:11.457Z,8.80
2018-09-18T04:11:44.991Z,7.33
2018-09-18T04:12:18.154Z,8.35
2018-09-18T04:12:51.361Z,8.43
2018-09-18T04:13:24.846Z,9.35
2018-09-18T04:13:58.005Z,8.90
2018-09-18T04:14:31.238Z,9.18
2018-09-18T04:15:04.992Z,9.58
2018-09-18T04:15:38.157Z,8.85
2018-09-18T04:16:11.832Z,8.70
2018-09-18T04:16:45.315Z,9.33
2018-09-18T04:17:18.494Z,8.75
2018-09-18T04:17:51.708Z,9.15
2018-09-18T04:18:26.190Z,9.33
2018-09-18T04:18:59.418Z,8.08
2018-09-18T04:19:32.635Z,9.08
2018-09-18T04:20:06.222Z,8.98
2018-09-18T04:20:39.385Z,8.85
2018-09-18T04:21:12.689Z,9.13
2018-09-18T04:21:46.098Z,9.48
2018-09-18T04:22:19.261Z,9.25
2018-09-18T04:22:52.629Z,9.90
2018-09-18T04:23:25.812Z,8.55
2018-09-18T04:23:59.021Z,9.88
2018-09-18T04:24:32.486Z,8.80
2018-09-18T04:25:05.876Z,8.25
2018-09-18T04:25:39.062Z,8.50
2018-09-18T04:26:12.269Z,9.85
2018-09-18T04:26:45.470Z,9.33
2018-09-18T04:27:18.836Z,9.48
2018-09-18T04:27:52.067Z,9.48
2018-09-18T04:28:25.294Z,8.40
2018-09-18T04:28:58.618Z,9.45
2018-09-18T04:29:31.898Z,8.98
2018-09-18T04:30:05.283Z,9.63
2018-09-18T04:30:38.471Z,8.65
2018-09-18T04:31:11.748Z,7.97
2018-09-18T04:31:44.928Z,9.15
2018-09-18T04:32:18.194Z,9.28
2018-09-18T04:32:51.398Z,8.93
2018-09-18T04:33:24.675Z,8.60
2018-09-18T04:34:00.867Z,8.00
2018-09-18T04:34:34.444Z,8.50
2018-09-18T04:35:07.841Z,8.48
2018-09-18T04:35:41.027Z,9.90
2018-09-18T04:36:14.182Z,9.30
2018-09-18T04:36:47.300Z,8.70
2018-09-18T04:37:21.722Z,9.95
2018-09-18T04:37:55.329Z,9.48
2018-09-18T04:38:28.634Z,9.78
2018-09-18T04:39:02.051Z,9.98
2018-09-18T04:39:35.376Z,8.63
2018-09-18T04:40:08.565Z,10.08
2018-09-18T04:40:41.821Z,9.40
2018-09-18T04:41:15.629Z,9.35
2018-09-18T04:41:48.933Z,9.10
2018-09-18T04:42:22.393Z,10.45
2018-09-18T04:42:55.699Z,9.63
2018-09-18T04:43:29.138Z,10.48
2018-09-18T04:44:02.569Z,9.20
2018-09-18T04:44:36.468Z,9.78
2018-09-18T04:45:10.379Z,9.65
2018-09-18T04:45:43.823Z,9.73
2018-09-18T04:46:17.299Z,10.18
2018-09-18T04:46:50.642Z,9.45
2018-09-18T04:47:24.226Z,9.83
2018-09-18T04:47:57.781Z,8.73
2018-09-18T04:48:31.118Z,10.63
2018-09-18T04:49:04.533Z,9.18
2018-09-18T04:49:37.757Z,10.08
2018-09-18T04:50:11.251Z,14.55
2018-09-18T04:50:44.495Z,13.70
2018-09-18T04:51:17.723Z,10.60
2018-09-18T04:51:51.210Z,10.75
2018-09-18T04:52:24.571Z,12.60
2018-09-18T04:52:57.920Z,10.35
2018-09-18T04:53:31.338Z,9.68
2018-09-18T04:54:04.533Z,9.00
2018-09-18T04:54:38.011Z,9.88
2018-09-18T04:55:11.556Z,10.20
2018-09-18T04:55:44.771Z,10.45
2018-09-18T04:56:18.184Z,9.45
2018-09-18T04:56:51.760Z,10.32
2018-09-18T04:57:25.279Z,8.95
2018-09-18T04:57:58.525Z,10.35
2018-09-18T04:58:32.053Z,10.50
2018-09-18T04:59:05.365Z,9.43
2018-09-18T04:59:38.595Z,10.70
2018-09-18T05:00:11.845Z,9.88
2018-09-18T05:00:45.140Z,11.10
2018-09-18T05:01:18.519Z,14.65
2018-09-18T05:01:51.831Z,14.30
2018-09-18T05:02:25.103Z,12.45
2018-09-18T05:02:58.360Z,11.03
2018-09-18T05:03:31.967Z,9.70
2018-09-18T05:04:05.335Z,10.10
2018-09-18T05:04:38.602Z,9.60
2018-09-18T05:05:12.205Z,9.65
2018-09-18T05:05:45.458Z,10.50
2018-09-18T05:06:18.765Z,10.18
2018-09-18T05:06:52.230Z,11.15
2018-09-18T05:07:25.439Z,11.35
2018-09-18T05:07:58.981Z,10.58
2018-09-18T05:08:32.580Z,10.15
2018-09-18T05:09:08.120Z,10.10
2018-09-18T05:09:41.517Z,9.70
2018-09-18T05:10:14.820Z,10.50
2018-09-18T05:10:47.998Z,10.88
2018-09-18T05:11:21.273Z,11.00
2018-09-18T05:11:54.559Z,11.28
2018-09-18T05:12:28.036Z,12.50
2018-09-18T05:13:01.402Z,10.35
2018-09-18T05:13:34.671Z,10.63
2018-09-18T05:14:08.161Z,11.05
2018-09-18T05:14:41.634Z,10.10
2018-09-18T05:15:15.161Z,11.48
2018-09-18T05:15:48.466Z,9.98
2018-09-18T05:16:21.797Z,10.82
2018-09-18T05:16:55.105Z,11.33
2018-09-18T05:17:29.606Z,10.05
2018-09-18T05:18:03.114Z,10.05
2018-09-18T05:18:36.531Z,10.80
2018-09-18T05:19:10.504Z,9.93
2018-09-18T05:19:43.801Z,11.40
2018-09-18T05:20:17.166Z,11.05
2018-09-18T05:20:50.402Z,10.60
2018-09-18T05:21:23.673Z,11.10
2018-09-18T05:21:56.884Z,11.28
2018-09-18T05:22:30.358Z,10.60
2018-09-18T05:23:03.650Z,10.20
2018-09-18T05:23:37.699Z,11.80
2018-09-18T05:24:10.966Z,10.63
2018-09-18T05:24:44.353Z,10.32
2018-09-18T05:25:17.667Z,9.78
2018-09-18T05:25:51.201Z,10.65
2018-09-18T05:26:24.593Z,10.80
2018-09-18T05:26:58.074Z,10.88
2018-09-18T05:27:31.322Z,11.03
2018-09-18T05:28:04.614Z,11.20
2018-09-18T05:28:37.835Z,11.83
2018-09-18T05:29:11.092Z,12.25
2018-09-18T05:29:44.533Z,11.90
2018-09-18T05:30:17.941Z,11.20
2018-09-18T05:30:51.495Z,11.53
2018-09-18T05:31:25.197Z,11.38
2018-09-18T05:31:58.517Z,11.53
2018-09-18T05:32:31.799Z,10.45
2018-09-18T05:33:04.992Z,12.00
2018-09-18T05:33:38.371Z,10.32
2018-09-18T05:34:12.156Z,11.53
2018-09-18T05:34:45.579Z,11.25
2018-09-18T05:35:19.010Z,11.25
2018-09-18T05:35:52.445Z,11.78
2018-09-18T05:36:25.819Z,11.28
2018-09-18T05:36:59.653Z,12.93
2018-09-18T05:37:33.063Z,10.90
2018-09-18T05:38:06.472Z,11.65
2018-09-18T05:38:40.526Z,11.57
2018-09-18T05:39:13.858Z,11.35
2018-09-18T05:39:47.213Z,11.70
2018-09-18T05:40:20.922Z,11.78
2018-09-18T05:40:55.490Z,12.35
2018-09-18T05:41:29.206Z,11.57
2018-09-18T05:42:03.172Z,12.23
2018-09-18T05:42:36.510Z,11.57
2018-09-18T05:43:09.805Z,11.85
2018-09-18T05:43:43.241Z,11.80
2018-09-18T05:44:16.426Z,12.55
2018-09-18T05:44:52.014Z,12.30
2018-09-18T05:45:26.071Z,13.35
2018-09-18T05:45:59.501Z,12.00
2018-09-18T05:46:32.728Z,12.33
2018-09-18T05:47:05.956Z,12.20
2018-09-18T05:47:39.304Z,13.45
2018-09-18T05:48:12.966Z,11.70
2018-09-18T05:48:46.346Z,11.73
2018-09-18T05:49:20.031Z,12.15
2018-09-18T05:49:53.438Z,12.23
2018-09-18T05:50:26.731Z,13.05
2018-09-18T05:51:00.052Z,12.85
2018-09-18T05:51:33.559Z,13.00
2018-09-18T05:52:06.792Z,11.50
2018-09-18T05:52:39.986Z,13.40
2018-09-18T05:53:13.259Z,12.05
2018-09-18T05:53:46.464Z,12.20
2018-09-18T05:54:21.263Z,11.25
2018-09-18T05:54:54.866Z,12.80
2018-09-18T05:55:28.451Z,12.45
2018-09-18T05:56:01.703Z,12.88
2018-09-18T05:56:34.998Z,12.82
2018-09-18T05:57:08.239Z,13.50
2018-09-18T05:57:41.974Z,12.45
2018-09-18T05:58:15.261Z,13.05
2018-09-18T05:58:48.611Z,13.30
2018-09-18T05:59:22.093Z,11.60
2018-09-18T05:59:55.312Z,12.30
2018-09-18T06:00:59.317Z,12.25
2018-09-18T06:01:32.544Z,12.18
2018-09-18T06:02:06.223Z,12.73
2018-09-18T06:02:39.670Z,11.57
2018-09-18T06:03:12.933Z,13.18
2018-09-18T06:03:46.205Z,11.85
2018-09-18T06:04:19.519Z,12.88
2018-09-18T06:04:52.818Z,12.40
2018-09-18T06:05:26.291Z,12.33
2018-09-18T06:06:00.520Z,13.32
2018-09-18T06:06:34.428Z,12.40
2018-09-18T06:07:07.647Z,12.28
2018-09-18T06:07:41.130Z,12.80
2018-09-18T06:08:14.366Z,13.15
2018-09-18T06:08:47.556Z,12.50
2018-09-18T06:09:20.844Z,12.75
2018-09-18T06:09:54.043Z,12.45
2018-09-18T06:10:27.671Z,11.75
2018-09-18T06:11:00.908Z,13.50
2018-09-18T06:11:34.110Z,12.35
2018-09-18T06:12:07.519Z,12.80
2018-09-18T06:12:40.994Z,12.40
2018-09-18T06:13:14.131Z,12.75
2018-09-18T06:13:47.323Z,13.80
2018-09-18T06:14:20.606Z,13.20
2018-09-18T06:14:53.880Z,12.50
2018-09-18T06:15:27.152Z,12.45
2018-09-18T06:16:00.619Z,13.45
2018-09-18T06:16:34.178Z,13.43
2018-09-18T06:17:07.371Z,12.30
2018-09-18T06:17:40.654Z,12.80
2018-09-18T06:18:14.018Z,12.18
2018-09-18T06:18:47.395Z,13.38
2018-09-18T06:19:20.707Z,12.98
2018-09-18T06:19:54.245Z,12.88
2018-09-18T06:20:27.526Z,13.20
2018-09-18T06:21:00.801Z,13.30
2018-09-18T06:21:33.946Z,13.22
2018-09-18T06:22:07.246Z,12.25
2018-09-18T06:22:40.553Z,13.75
2018-09-18T06:23:13.905Z,13.28
2018-09-18T06:23:47.337Z,13.22
2018-09-18T06:24:20.898Z,12.53
2018-09-18T06:24:54.073Z,12.15
2018-09-18T06:25:27.934Z,12.85
2018-09-18T06:26:01.169Z,13.68
2018-09-18T06:26:34.377Z,13.98
2018-09-18T06:27:08.753Z,13.75
2018-09-18T06:27:41.940Z,14.38
2018-09-18T06:28:15.126Z,12.28
2018-09-18T06:28:48.505Z,13.18
2018-09-18T06:29:21.854Z,15.10
2018-09-18T06:29:55.005Z,13.45
2018-09-18T06:30:28.350Z,12.60
2018-09-18T06:31:01.563Z,13.58
2018-09-18T06:31:34.903Z,12.88
2018-09-18T06:32:08.174Z,13.78
2018-09-18T06:32:41.417Z,15.00
2018-09-18T06:33:14.928Z,13.32
2018-09-18T06:33:48.512Z,13.08
2018-09-18T06:34:21.798Z,12.82
2018-09-18T06:34:54.951Z,13.50
2018-09-18T06:35:28.578Z,13.20
2018-09-18T06:36:02.116Z,13.95
2018-09-18T06:36:35.325Z,13.32
2018-09-18T06:37:09.426Z,13.55
2018-09-18T06:37:42.961Z,13.45
2018-09-18T06:38:16.336Z,13.30
2018-09-18T06:38:49.633Z,12.60
2018-09-18T06:39:23.002Z,12.58
2018-09-18T06:39:56.589Z,14.05
2018-09-18T06:40:29.926Z,15.03
2018-09-18T06:41:03.105Z,13.45
2018-09-18T06:41:36.315Z,12.63
2018-09-18T06:42:09.513Z,12.23
2018-09-18T06:42:42.718Z,12.93
2018-09-18T06:43:16.321Z,12.18
2018-09-18T06:43:49.727Z,13.80
2018-09-18T06:44:23.338Z,13.00
2018-09-18T06:44:56.561Z,12.95
2018-09-18T06:45:30.110Z,12.60
2018-09-18T06:46:03.415Z,12.45
2018-09-18T06:46:36.709Z,12.55
2018-09-18T06:47:10.216Z,13.53
2018-09-18T06:47:43.496Z,12.78
2018-09-18T06:48:17.099Z,13.18
2018-09-18T06:48:50.976Z,12.95
2018-09-18T06:49:24.194Z,13.62
2018-09-18T06:49:57.633Z,14.85
2018-09-18T06:50:31.316Z,11.93
2018-09-18T06:51:04.563Z,14.53
2018-09-18T06:51:38.270Z,13.55
2018-09-18T06:52:11.752Z,12.35
2018-09-18T06:52:44.985Z,13.22
2018-09-18T06:53:18.632Z,13.55
2018-09-18T06:53:52.077Z,13.68
2018-09-18T06:54:25.304Z,13.85
2018-09-18T06:54:58.674Z,13.10
2018-09-18T06:55:31.987Z,13.18
2018-09-18T06:56:05.251Z,13.18
2018-09-18T06:56:38.458Z,12.90
2018-09-18T06:57:11.809Z,14.30
2018-09-18T06:57:45.126Z,14.47
2018-09-18T06:58:18.298Z,14.05
2018-09-18T06:58:51.496Z,12.73
2018-09-18T06:59:24.904Z,12.60
2018-09-18T06:59:58.261Z,13.43
2018-09-18T07:00:31.550Z,12.70
2018-09-18T07:01:04.799Z,17.00
2018-09-18T07:01:38.101Z,13.68
2018-09-18T07:02:11.344Z,12.95
2018-09-18T07:02:44.713Z,12.80
2018-09-18T07:03:17.966Z,12.82
2018-09-18T07:03:51.990Z,11.73
2018-09-18T07:04:25.223Z,13.60
2018-09-18T07:04:58.453Z,13.90
2018-09-18T07:05:31.772Z,13.00
2018-09-18T07:06:04.940Z,12.53
2018-09-18T07:06:38.276Z,14.10
2018-09-18T07:07:11.590Z,14.40
2018-09-18T07:07:45.003Z,13.05
2018-09-18T07:08:18.838Z,12.65
2018-09-18T07:08:52.001Z,12.20
2018-09-18T07:09:25.188Z,12.78
2018-09-18T07:09:58.542Z,13.10
2018-09-18T07:10:31.735Z,12.93
2018-09-18T07:11:05.246Z,12.45
2018-09-18T07:11:38.586Z,13.35
2018-09-18T07:12:11.996Z,12.33
2018-09-18T07:12:45.449Z,11.90
2018-09-18T07:13:18.726Z,12.30
2018-09-18T07:13:52.168Z,11.55
2018-09-18T07:14:25.784Z,13.30
2018-09-18T07:14:59.046Z,12.78
2018-09-18T07:15:32.226Z,12.30
2018-09-18T07:16:05.418Z,12.30
2018-09-18T07:16:38.641Z,12.45
2018-09-18T07:17:11.827Z,13.05
2018-09-18T07:17:45.893Z,12.95
2018-09-18T07:18:19.528Z,12.90
2018-09-18T07:18:53.139Z,12.82
2018-09-18T07:19:26.342Z,12.00
2018-09-18T07:19:59.541Z,11.12